createdAt,value
2016-09-23T00:00:00.849Z,2.62
2016-09-23T00:01:00.843Z,2.73
2016-09-23T00:02:00.809Z,2.71
2016-09-23T00:03:00.762Z,2.66
2016-09-23T00:04:00.750Z,2.62
2016-09-23T00:05:00.754Z,2.58
2016-09-23T00:06:00.740Z,2.69
2016-09-23T00:07:00.748Z,2.69
2016-09-23T00:08:00.713Z,2.71
2016-09-23T00:09:00.726Z,2.62
2016-09-23T00:10:00.704Z,2.62
2016-09-23T00:11:00.700Z,2.68
2016-09-23T00:12:00.641Z,2.63
2016-09-23T00:13:00.661Z,2.58
2016-09-23T00:14:00.601Z,2.68
2016-09-23T00:15:00.621Z,2.62
2016-09-23T00:16:00.617Z,2.62
2016-09-23T00:17:00.610Z,2.66
2016-09-23T00:18:00.572Z,2.58
2016-09-23T00:19:00.548Z,2.61
2016-09-23T00:20:00.534Z,2.63
2016-09-23T00:21:00.554Z,2.63
2016-09-23T00:22:00.528Z,2.65
2016-09-23T00:23:00.483Z,2.66
2016-09-23T00:24:00.489Z,2.62
2016-09-23T00:25:00.442Z,2.58
2016-09-23T00:26:00.480Z,2.61
2016-09-23T00:27:00.414Z,2.59
2016-09-23T00:28:00.418Z,2.56
2016-09-23T00:29:00.397Z,2.56
2016-09-23T00:30:00.392Z,2.55
2016-09-23T00:31:00.358Z,2.63
2016-09-23T00:32:00.394Z,2.62
2016-09-23T00:33:00.357Z,2.53
2016-09-23T00:34:00.346Z,2.5
2016-09-23T00:35:00.316Z,2.62
2016-09-23T00:36:00.384Z,2.41
2016-09-23T00:37:00.322Z,2.51
2016-09-23T00:38:00.277Z,2.51
2016-09-23T00:39:00.260Z,2.48
2016-09-23T00:40:00.256Z,2.53
2016-09-23T00:41:00.221Z,2.48
2016-09-23T00:42:00.226Z,2.5
2016-09-23T00:43:00.251Z,2.44
2016-09-23T00:44:00.188Z,2.47
2016-09-23T00:45:00.151Z,2.51
2016-09-23T00:46:00.158Z,2.47
2016-09-23T00:47:00.154Z,2.5
2016-09-23T00:48:00.141Z,2.47
2016-09-23T00:49:00.113Z,2.48
2016-09-23T00:50:00.091Z,2.45
2016-09-23T00:51:00.074Z,2.41
2016-09-23T00:52:00.084Z,2.44
2016-09-23T00:53:00.089Z,2.43
2016-09-23T00:54:00.069Z,2.38
2016-09-23T00:55:00.058Z,2.41
2016-09-23T00:55:59.998Z,2.38
2016-09-23T00:56:59.976Z,2.4
2016-09-23T00:58:00.004Z,2.4
2016-09-23T00:58:59.968Z,2.36
2016-09-23T00:59:59.970Z,2.38
2016-09-23T01:00:59.938Z,2.4
2016-09-23T01:01:59.936Z,2.38
2016-09-23T01:02:59.927Z,2.27
2016-09-23T01:03:59.930Z,2.3
2016-09-23T01:04:59.870Z,2.26
2016-09-23T01:05:59.877Z,2.4
2016-09-23T01:06:59.831Z,2.29
2016-09-23T01:07:59.849Z,2.41
2016-09-23T01:08:59.834Z,2.29
2016-09-23T01:09:59.810Z,2.37
2016-09-23T01:10:59.823Z,2.44
2016-09-23T01:11:59.801Z,2.37
2016-09-23T01:12:59.755Z,2.41
2016-09-23T01:13:59.761Z,2.27
2016-09-23T01:14:59.773Z,2.3
2016-09-23T01:15:59.729Z,2.26
2016-09-23T01:16:59.716Z,2.29
2016-09-23T01:17:59.723Z,2.32
2016-09-23T01:18:59.678Z,2.38
2016-09-23T01:19:59.663Z,2.27
2016-09-23T01:20:59.653Z,2.3
2016-09-23T01:21:59.847Z,2.36
2016-09-23T01:22:59.648Z,2.3
2016-09-23T01:23:59.582Z,2.3
2016-09-23T01:24:59.586Z,2.32
2016-09-23T01:25:59.555Z,2.32
2016-09-23T01:26:59.579Z,2.22
2016-09-23T01:27:59.544Z,2.32
2016-09-23T01:28:59.530Z,2.27
2016-09-23T01:29:59.526Z,2.29
2016-09-23T01:30:59.523Z,2.27
2016-09-23T01:31:59.495Z,2.29
2016-09-23T01:32:59.495Z,2.29
2016-09-23T01:33:59.452Z,2.22
2016-09-23T01:34:59.491Z,2.29
2016-09-23T01:35:59.450Z,2.26
2016-09-23T01:36:59.437Z,2.2
2016-09-23T01:37:59.437Z,2.27
2016-09-23T01:38:59.390Z,2.25
2016-09-23T01:39:59.381Z,2.29
2016-09-23T01:40:59.381Z,2.26
2016-09-23T01:41:59.326Z,2.25
2016-09-23T01:42:59.341Z,2.26
2016-09-23T01:43:59.287Z,2.29
2016-09-23T01:44:59.290Z,2.26
2016-09-23T01:45:59.278Z,2.22
2016-09-23T01:46:59.614Z,2.3
2016-09-23T01:47:59.269Z,2.26
2016-09-23T01:48:59.245Z,2.29
2016-09-23T01:49:59.230Z,2.3
2016-09-23T01:50:59.237Z,2.2
2016-09-23T01:51:59.232Z,2.23
2016-09-23T01:52:59.189Z,2.23
2016-09-23T01:53:59.161Z,2.15
2016-09-23T01:54:59.120Z,2.22
2016-09-23T01:55:59.106Z,2.15
2016-09-23T01:56:59.147Z,2.12
2016-09-23T01:57:59.098Z,2.27
2016-09-23T01:58:59.116Z,2.2
2016-09-23T01:59:59.073Z,2.27
2016-09-23T02:00:59.064Z,2.22
2016-09-23T02:01:59.047Z,2.18
2016-09-23T02:02:59.047Z,2.26
2016-09-23T02:03:59.010Z,2.2
2016-09-23T02:04:59.018Z,2.25
2016-09-23T02:05:58.979Z,2.23
2016-09-23T02:06:58.944Z,2.15
2016-09-23T02:07:58.941Z,2.2
2016-09-23T02:08:58.921Z,2.15
2016-09-23T02:09:58.920Z,2.15
2016-09-23T02:10:58.923Z,2.25
2016-09-23T02:11:58.891Z,2.25
2016-09-23T02:12:58.887Z,2.32
2016-09-23T02:13:58.865Z,2.27
2016-09-23T02:14:58.853Z,2.3
2016-09-23T02:15:58.808Z,2.25
2016-09-23T02:16:58.803Z,2.29
2016-09-23T02:17:58.773Z,2.22
2016-09-23T02:18:58.795Z,2.15
2016-09-23T02:19:58.771Z,2.18
2016-09-23T02:20:58.793Z,2.19
2016-09-23T02:21:58.728Z,2.25
2016-09-23T02:22:58.725Z,2.18
2016-09-23T02:23:58.690Z,2.19
2016-09-23T02:24:58.672Z,2.23
2016-09-23T02:25:58.670Z,2.27
2016-09-23T02:26:58.694Z,2.19
2016-09-23T02:27:58.673Z,2.18
2016-09-23T02:28:58.655Z,2.22
2016-09-23T02:29:58.620Z,2.12
2016-09-23T02:30:58.616Z,2.26
2016-09-23T02:31:58.605Z,2.29
2016-09-23T02:32:58.597Z,2.19
2016-09-23T02:33:58.576Z,2.22
2016-09-23T02:34:58.562Z,2.15
2016-09-23T02:35:58.540Z,2.12
2016-09-23T02:36:58.532Z,2.19
2016-09-23T02:37:58.493Z,2.15
2016-09-23T02:38:58.522Z,2.14
2016-09-23T02:39:58.482Z,2.22
2016-09-23T02:40:58.444Z,2.18
2016-09-23T02:41:58.439Z,2.18
2016-09-23T02:42:58.403Z,2.23
2016-09-23T02:43:58.424Z,2.15
2016-09-23T02:44:58.396Z,2.23
2016-09-23T02:45:58.383Z,2.22
2016-09-23T02:46:58.381Z,2.2
2016-09-23T02:47:58.372Z,2.26
2016-09-23T02:48:58.351Z,2.22
2016-09-23T02:49:58.335Z,2.15
2016-09-23T02:50:58.335Z,2.23
2016-09-23T02:51:58.282Z,2.11
2016-09-23T02:52:58.281Z,2.09
2016-09-23T02:53:58.297Z,2.14
2016-09-23T02:54:58.281Z,2.22
2016-09-23T02:55:58.267Z,2.12
2016-09-23T02:56:58.232Z,2.11
2016-09-23T02:57:58.215Z,2.18
2016-09-23T02:58:58.196Z,2.11
2016-09-23T02:59:58.168Z,2.05
2016-09-23T03:00:58.140Z,2.12
2016-09-23T03:01:58.123Z,2.18
2016-09-23T03:02:58.109Z,2.12
2016-09-23T03:03:58.117Z,2.14
2016-09-23T03:04:58.117Z,2.09
2016-09-23T03:05:58.107Z,2.11
2016-09-23T03:06:58.050Z,2.09
2016-09-23T03:07:58.034Z,2.14
2016-09-23T03:08:58.032Z,2.15
2016-09-23T03:09:58.029Z,2.14
2016-09-23T03:10:58.022Z,2.09
2016-09-23T03:11:57.999Z,2.11
2016-09-23T03:12:57.981Z,2.09
2016-09-23T03:13:57.966Z,2.08
2016-09-23T03:14:57.962Z,2.14
2016-09-23T03:15:57.959Z,2.09
2016-09-23T03:16:57.925Z,2.09
2016-09-23T03:17:57.937Z,2.08
2016-09-23T03:18:57.911Z,2.15
2016-09-23T03:19:57.906Z,2.15
2016-09-23T03:20:57.863Z,1.92
2016-09-23T03:21:57.847Z,2.02
2016-09-23T03:22:57.843Z,2.07
2016-09-23T03:23:57.844Z,1.93
2016-09-23T03:24:57.822Z,2.02
2016-09-23T03:25:57.767Z,2
2016-09-23T03:26:57.781Z,2.09
2016-09-23T03:27:57.739Z,2.05
2016-09-23T03:28:58.057Z,2.18
2016-09-23T03:29:57.739Z,2.15
2016-09-23T03:30:57.725Z,2.07
2016-09-23T03:31:57.701Z,2.12
2016-09-23T03:32:57.685Z,2.09
2016-09-23T03:33:57.689Z,2.09
2016-09-23T03:34:58.001Z,2.08
2016-09-23T03:35:57.662Z,2.11
2016-09-23T03:36:57.655Z,2.04
2016-09-23T03:37:57.609Z,2.18
2016-09-23T03:38:57.595Z,2.09
2016-09-23T03:39:57.589Z,2.15
2016-09-23T03:40:57.554Z,2.08
2016-09-23T03:41:57.851Z,2.08
2016-09-23T03:42:57.546Z,2.01
2016-09-23T03:43:57.554Z,2.02
2016-09-23T03:44:57.483Z,2.08
2016-09-23T03:45:57.526Z,2.11
2016-09-23T03:46:57.496Z,2.08
2016-09-23T03:47:57.464Z,2.05
2016-09-23T03:48:57.443Z,2.11
2016-09-23T03:49:57.437Z,2.02
2016-09-23T03:50:57.423Z,2.11
2016-09-23T03:51:57.387Z,2.05
2016-09-23T03:52:57.384Z,2.01
2016-09-23T03:53:57.346Z,2.04
2016-09-23T03:54:57.350Z,2
2016-09-23T03:55:57.354Z,2.07
2016-09-23T03:56:57.333Z,2.05
2016-09-23T03:57:57.300Z,2.01
2016-09-23T03:58:57.333Z,2.04
2016-09-23T03:59:57.337Z,2.02
2016-09-23T04:00:57.278Z,2
2016-09-23T04:01:57.229Z,1.95
2016-09-23T04:02:57.214Z,1.98
2016-09-23T04:03:57.238Z,1.95
2016-09-23T04:04:57.206Z,1.98
2016-09-23T04:05:57.204Z,1.89
2016-09-23T04:06:57.205Z,1.92
2016-09-23T04:07:57.137Z,2
2016-09-23T04:08:57.166Z,1.98
2016-09-23T04:09:57.109Z,1.95
2016-09-23T04:10:57.113Z,1.93
2016-09-23T04:11:57.109Z,2.01
2016-09-23T04:12:57.086Z,1.98
2016-09-23T04:13:57.108Z,2.01
2016-09-23T04:14:57.157Z,1.98
2016-09-23T04:15:57.047Z,2
2016-09-23T04:16:57.021Z,1.98
2016-09-23T04:17:57.024Z,1.93
2016-09-23T04:18:57.015Z,1.98
2016-09-23T04:19:56.981Z,2
2016-09-23T04:20:56.966Z,1.98
2016-09-23T04:21:56.959Z,1.93
2016-09-23T04:22:56.925Z,2.01
2016-09-23T04:23:56.954Z,1.93
2016-09-23T04:24:56.910Z,1.98
2016-09-23T04:25:56.904Z,1.98
2016-09-23T04:26:57.193Z,1.92
2016-09-23T04:27:56.895Z,1.86
2016-09-23T04:28:56.835Z,1.88
2016-09-23T04:29:56.841Z,1.82
2016-09-23T04:30:56.794Z,1.86
2016-09-23T04:31:56.815Z,1.86
2016-09-23T04:32:56.785Z,1.93
2016-09-23T04:33:56.768Z,1.93
2016-09-23T04:34:56.757Z,1.89
2016-09-23T04:35:56.741Z,1.95
2016-09-23T04:36:56.737Z,1.89
2016-09-23T04:37:56.746Z,1.89
2016-09-23T04:38:56.712Z,1.85
2016-09-23T04:39:56.701Z,1.93
2016-09-23T04:40:56.693Z,1.89
2016-09-23T04:41:56.636Z,1.83
2016-09-23T04:42:56.658Z,1.88
2016-09-23T04:43:56.609Z,1.93
2016-09-23T04:44:56.639Z,2.01
2016-09-23T04:45:56.571Z,1.88
2016-09-23T04:46:56.567Z,1.82
2016-09-23T04:47:56.560Z,1.88
2016-09-23T04:48:56.555Z,1.81
2016-09-23T04:49:56.566Z,1.88
2016-09-23T04:50:56.530Z,1.85
2016-09-23T04:51:56.533Z,1.9
2016-09-23T04:52:56.484Z,1.85
2016-09-23T04:53:56.469Z,1.83
2016-09-23T04:54:56.488Z,1.81
2016-09-23T04:55:56.461Z,1.83
2016-09-23T04:56:56.429Z,1.82
2016-09-23T04:57:56.421Z,1.82
2016-09-23T04:58:56.395Z,1.79
2016-09-23T04:59:56.370Z,1.79
2016-09-23T05:00:56.562Z,1.83
2016-09-23T05:01:56.384Z,1.81
2016-09-23T05:02:56.359Z,1.81
2016-09-23T05:03:56.319Z,1.74
2016-09-23T05:04:56.339Z,1.74
2016-09-23T05:05:56.293Z,1.81
2016-09-23T05:06:56.274Z,1.71
2016-09-23T05:07:56.245Z,1.75
2016-09-23T05:08:56.259Z,1.65
2016-09-23T05:09:56.264Z,1.74
2016-09-23T05:10:56.246Z,1.79
2016-09-23T05:11:56.191Z,1.75
2016-09-23T05:12:56.204Z,1.75
2016-09-23T05:13:56.159Z,1.88
2016-09-23T05:14:56.143Z,1.77
2016-09-23T05:15:56.141Z,1.79
2016-09-23T05:16:56.120Z,1.77
2016-09-23T05:17:56.082Z,1.85
2016-09-23T05:18:56.082Z,1.79
2016-09-23T05:19:56.077Z,1.85
2016-09-23T05:20:56.051Z,1.86
2016-09-23T05:21:56.080Z,1.89
2016-09-23T05:22:56.055Z,1.85
2016-09-23T05:23:56.026Z,1.92
2016-09-23T05:24:56.014Z,1.9
2016-09-23T05:25:55.964Z,1.85
2016-09-23T05:26:55.955Z,1.88
2016-09-23T05:27:55.958Z,1.86
2016-09-23T05:28:55.942Z,1.85
2016-09-23T05:29:55.924Z,1.85
2016-09-23T05:30:55.917Z,1.86
2016-09-23T05:31:55.905Z,2
2016-09-23T05:32:55.893Z,1.92
2016-09-23T05:33:55.878Z,1.92
2016-09-23T05:34:55.880Z,1.83
2016-09-23T05:35:55.836Z,1.83
2016-09-23T05:36:55.852Z,1.9
2016-09-23T05:37:55.796Z,1.88
2016-09-23T05:38:55.811Z,1.83
2016-09-23T05:39:55.784Z,1.77
2016-09-23T05:40:55.782Z,1.89
2016-09-23T05:41:55.745Z,1.86
2016-09-23T05:42:55.719Z,1.98
2016-09-23T05:43:55.693Z,2
2016-09-23T05:44:55.679Z,2
2016-09-23T05:45:55.685Z,2.07
2016-09-23T05:46:55.670Z,2.23
2016-09-23T05:47:55.656Z,2.15
2016-09-23T05:48:55.659Z,2.09
2016-09-23T05:49:55.603Z,2.12
2016-09-23T05:50:55.630Z,2.11
2016-09-23T05:51:55.784Z,2.19
2016-09-23T05:52:55.568Z,2.18
2016-09-23T05:53:55.583Z,2.08
2016-09-23T05:54:55.541Z,2.08
2016-09-23T05:55:55.556Z,2.23
2016-09-23T05:56:55.529Z,2.2
2016-09-23T05:57:55.505Z,2.29
2016-09-23T05:58:55.488Z,2.29
2016-09-23T05:59:55.459Z,2.27
2016-09-23T06:00:55.438Z,2.48
2016-09-23T06:01:55.436Z,2.41
2016-09-23T06:02:55.430Z,2.47
2016-09-23T06:03:55.415Z,2.5
2016-09-23T06:04:55.399Z,2.48
2016-09-23T06:05:55.415Z,2.5
2016-09-23T06:06:55.405Z,2.45
2016-09-23T06:07:55.332Z,2.44
2016-09-23T06:08:55.319Z,2.53
2016-09-23T06:09:55.327Z,2.56
2016-09-23T06:10:55.291Z,2.62
2016-09-23T06:11:55.329Z,2.51
2016-09-23T06:12:55.291Z,2.66
2016-09-23T06:13:55.579Z,2.73
2016-09-23T06:14:55.263Z,2.77
2016-09-23T06:15:55.271Z,2.81
2016-09-23T06:16:55.222Z,2.79
2016-09-23T06:17:55.214Z,2.74
2016-09-23T06:18:55.211Z,2.84
2016-09-23T06:19:55.199Z,2.9
2016-09-23T06:20:55.194Z,2.92
2016-09-23T06:21:55.150Z,3.02
2016-09-23T06:22:55.157Z,3.02
2016-09-23T06:23:55.110Z,2.95
2016-09-23T06:24:55.083Z,2.9
2016-09-23T06:25:55.100Z,2.97
2016-09-23T06:26:55.055Z,2.74
2016-09-23T06:27:55.057Z,2.61
2016-09-23T06:28:55.047Z,2.51
2016-09-23T06:29:55.042Z,2.29
2016-09-23T06:30:54.996Z,2.5
2016-09-23T06:31:55.001Z,2.77
2016-09-23T06:32:54.977Z,2.8
2016-09-23T06:33:54.982Z,2.84
2016-09-23T06:34:54.967Z,3.1
2016-09-23T06:35:54.924Z,3.33
2016-09-23T06:36:54.938Z,3.59
2016-09-23T06:37:54.928Z,3.63
2016-09-23T06:38:54.934Z,3.57
2016-09-23T06:39:54.897Z,3.42
2016-09-23T06:40:54.863Z,3.82
2016-09-23T06:41:54.862Z,3.53
2016-09-23T06:42:54.829Z,3.57
2016-09-23T06:43:54.826Z,3.59
2016-09-23T06:44:54.835Z,3.93
2016-09-23T06:45:54.810Z,3.84
2016-09-23T06:46:54.780Z,3.81
2016-09-23T06:47:54.782Z,3.9
2016-09-23T06:48:54.765Z,3.7
2016-09-23T06:49:54.748Z,3.56
2016-09-23T06:50:54.749Z,3.52
2016-09-23T06:51:54.729Z,3.9
2016-09-23T06:52:54.711Z,4
2016-09-23T06:53:54.676Z,3.81
2016-09-23T06:54:54.661Z,3.5
2016-09-23T06:55:54.644Z,3.82
2016-09-23T06:56:54.645Z,3.82
2016-09-23T06:57:54.665Z,4.07
2016-09-23T06:58:54.651Z,4.08
2016-09-23T06:59:54.625Z,4.02
2016-09-23T07:00:54.586Z,4.34
2016-09-23T07:01:54.555Z,4.49
2016-09-23T07:02:54.592Z,4.65
2016-09-23T07:03:54.560Z,3.98
2016-09-23T07:04:54.524Z,3.93
2016-09-23T07:05:54.549Z,3.82
2016-09-23T07:06:54.508Z,4.26
2016-09-23T07:07:54.515Z,4.69
2016-09-23T07:08:54.492Z,4.14
2016-09-23T07:09:54.456Z,3.8
2016-09-23T07:10:54.430Z,3.49
2016-09-23T07:11:54.419Z,3.64
2016-09-23T07:12:54.428Z,3.62
2016-09-23T07:13:54.400Z,4.07
2016-09-23T07:14:54.388Z,3.75
2016-09-23T07:15:54.425Z,3.81
2016-09-23T07:16:54.380Z,3.82
2016-09-23T07:17:54.367Z,4.13
2016-09-23T07:18:54.361Z,4.13
2016-09-23T07:19:54.336Z,4.07
2016-09-23T07:20:54.329Z,4
2016-09-23T07:21:54.293Z,3.62
2016-09-23T07:22:54.265Z,3.64
2016-09-23T07:23:54.299Z,3.54
2016-09-23T07:24:54.286Z,3.16
2016-09-23T07:25:54.250Z,2.99
2016-09-23T07:26:54.248Z,2.68
2016-09-23T07:27:54.231Z,2.58
2016-09-23T07:28:54.232Z,2.47
2016-09-23T07:29:54.195Z,2.5
2016-09-23T07:30:54.179Z,2.47
2016-09-23T07:31:54.175Z,2.45
2016-09-23T07:32:54.138Z,2.5
2016-09-23T07:33:54.124Z,2.3
2016-09-23T07:34:54.135Z,2.3
2016-09-23T07:35:54.119Z,2.29
2016-09-23T07:36:54.094Z,2.23
2016-09-23T07:37:54.070Z,2.25
2016-09-23T07:38:54.062Z,2.37
2016-09-23T07:39:54.087Z,2.15
2016-09-23T07:40:54.045Z,2.19
2016-09-23T07:41:54.007Z,2.18
2016-09-23T07:42:53.980Z,2.4
2016-09-23T07:43:54.165Z,2.41
2016-09-23T07:44:53.960Z,2.26
2016-09-23T07:45:53.940Z,2.62
2016-09-23T07:46:53.936Z,2.63
2016-09-23T07:47:53.908Z,2.55
2016-09-23T07:48:53.939Z,2.44
2016-09-23T07:49:53.876Z,2.41
2016-09-23T07:50:53.920Z,2.3
2016-09-23T07:51:53.905Z,2.27
2016-09-23T07:52:53.884Z,2.53
2016-09-23T07:53:53.867Z,2.62
2016-09-23T07:54:53.802Z,2.4
2016-09-23T07:55:53.826Z,2.38
2016-09-23T07:56:53.800Z,2.4
2016-09-23T07:57:53.776Z,2.22
2016-09-23T07:58:53.769Z,2.2
2016-09-23T07:59:53.771Z,2.38
2016-09-23T08:00:53.720Z,2.36
2016-09-23T08:01:53.701Z,2.41
2016-09-23T08:02:53.722Z,2.29
2016-09-23T08:03:53.674Z,2.12
2016-09-23T08:04:53.661Z,2.05
2016-09-23T08:05:53.649Z,2.04
2016-09-23T08:06:53.629Z,2.11
2016-09-23T08:07:53.643Z,2.18
2016-09-23T08:08:53.656Z,2.29
2016-09-23T08:09:53.607Z,2.25
2016-09-23T08:10:53.625Z,2.23
2016-09-23T08:11:53.589Z,2.27
2016-09-23T08:12:53.552Z,2.2
2016-09-23T08:13:53.546Z,2.15
2016-09-23T08:14:53.527Z,2.2
2016-09-23T08:15:53.515Z,2.15
2016-09-23T08:16:53.480Z,2.22
2016-09-23T08:17:53.503Z,2.2
2016-09-23T08:18:53.476Z,2.08
2016-09-23T08:19:53.438Z,2.09
2016-09-23T08:20:53.465Z,2.11
2016-09-23T08:21:53.425Z,2.11
2016-09-23T08:22:53.426Z,2.09
2016-09-23T08:23:53.395Z,2.15
2016-09-23T08:24:53.398Z,2.22
2016-09-23T08:25:53.369Z,2.26
2016-09-23T08:26:53.382Z,2.32
2016-09-23T08:27:53.354Z,2.27
2016-09-23T08:28:53.339Z,2.3
2016-09-23T08:29:53.418Z,2.19
2016-09-23T08:30:53.294Z,2.15
2016-09-23T08:31:53.291Z,2.08
2016-09-23T08:32:53.295Z,2.26
2016-09-23T08:33:53.269Z,2.15
2016-09-23T08:34:53.255Z,2.29
2016-09-23T08:35:53.218Z,2.26
2016-09-23T08:36:53.202Z,2.22
2016-09-23T08:37:53.200Z,2.3
2016-09-23T08:38:53.204Z,2.3
2016-09-23T08:39:53.258Z,2.41
2016-09-23T08:40:53.154Z,2.45
2016-09-23T08:41:53.129Z,2.44
2016-09-23T08:42:53.123Z,2.32
2016-09-23T08:43:53.084Z,2.38
2016-09-23T08:44:53.074Z,2.41
2016-09-23T08:45:53.047Z,2.27
2016-09-23T08:46:53.034Z,2.25
2016-09-23T08:47:53.063Z,2.5
2016-09-23T08:48:53.036Z,2.55
2016-09-23T08:49:53.010Z,2.71
2016-09-23T08:50:53.006Z,2.58
2016-09-23T08:51:52.978Z,2.45
2016-09-23T08:52:52.966Z,2.37
2016-09-23T08:53:52.933Z,2.26
2016-09-23T08:54:52.919Z,2.33
2016-09-23T08:55:52.902Z,2.29
2016-09-23T08:56:52.897Z,2.29
2016-09-23T08:57:52.914Z,2.38
2016-09-23T08:58:52.869Z,2.79
2016-09-23T08:59:52.885Z,2.97
2016-09-23T09:00:52.837Z,2.84
2016-09-23T09:01:52.845Z,3.12
2016-09-23T09:02:52.831Z,2.8
2016-09-23T09:03:52.802Z,2.69
2016-09-23T09:04:52.800Z,2.65
2016-09-23T09:05:52.777Z,2.76
2016-09-23T09:06:52.792Z,2.81
2016-09-23T09:07:52.758Z,2.99
2016-09-23T09:08:52.752Z,2.81
2016-09-23T09:09:52.708Z,3.22
2016-09-23T09:10:52.699Z,3.23
2016-09-23T09:11:52.721Z,2.97
2016-09-23T09:12:52.665Z,3.28
2016-09-23T09:13:52.688Z,3.23
2016-09-23T09:14:52.679Z,3.25
2016-09-23T09:15:52.662Z,3.56
2016-09-23T09:16:52.616Z,3.84
2016-09-23T09:17:52.590Z,3.98
2016-09-23T09:18:52.620Z,4.08
2016-09-23T09:19:52.581Z,3.84
2016-09-23T09:20:52.659Z,3.63
2016-09-23T09:21:52.573Z,3.42
2016-09-23T09:22:52.521Z,3.62
2016-09-23T09:23:52.867Z,3.41
2016-09-23T09:24:52.523Z,3.37
2016-09-23T09:25:52.478Z,3.13
2016-09-23T09:26:52.477Z,3.41
2016-09-23T09:27:52.439Z,3.3
2016-09-23T09:28:52.477Z,3.39
2016-09-23T09:29:52.446Z,3.46
2016-09-23T09:30:52.429Z,3.33
2016-09-23T09:31:52.428Z,3.08
2016-09-23T09:32:52.406Z,2.98
2016-09-23T09:33:52.369Z,3.1
2016-09-23T09:34:52.366Z,3.12
2016-09-23T09:35:52.342Z,3.44
2016-09-23T09:36:52.314Z,3.22
2016-09-23T09:37:52.323Z,2.98
2016-09-23T09:38:52.341Z,2.9
2016-09-23T09:39:52.305Z,2.98
2016-09-23T09:40:52.284Z,3.46
2016-09-23T09:41:52.270Z,3.41
2016-09-23T09:42:52.258Z,3.3
2016-09-23T09:43:52.251Z,3.41
2016-09-23T09:44:52.228Z,3.39
2016-09-23T09:45:52.233Z,3.53
2016-09-23T09:46:52.210Z,3.59
2016-09-23T09:47:52.186Z,3.26
2016-09-23T09:48:52.174Z,3.35
2016-09-23T09:49:52.169Z,3.42
2016-09-23T09:50:52.147Z,3.22
2016-09-23T09:51:52.116Z,3.02
2016-09-23T09:52:52.121Z,2.97
2016-09-23T09:53:52.138Z,3.26
2016-09-23T09:54:52.093Z,3.49
2016-09-23T09:55:52.060Z,3.53
2016-09-23T09:56:52.053Z,3.81
2016-09-23T09:57:52.032Z,4.07
2016-09-23T09:58:52.049Z,4.44
2016-09-23T09:59:52.038Z,4.36
2016-09-23T10:00:52.004Z,4.28
2016-09-23T10:01:52.015Z,4.06
2016-09-23T10:02:51.996Z,4.26
2016-09-23T10:03:51.964Z,4.32
2016-09-23T10:04:51.967Z,4.06
2016-09-23T10:05:51.979Z,3.77
2016-09-23T10:06:51.943Z,3.59
2016-09-23T10:07:51.930Z,3.57
2016-09-23T10:08:51.887Z,3.78
2016-09-23T10:09:51.916Z,3.96
2016-09-23T10:10:51.867Z,4.36
2016-09-23T10:11:51.878Z,4.2
2016-09-23T10:12:51.851Z,4.21
2016-09-23T10:13:51.841Z,4.16
2016-09-23T10:14:51.842Z,3.96
2016-09-23T10:15:51.798Z,3.86
2016-09-23T10:16:51.830Z,3.82
2016-09-23T10:17:51.796Z,3.98
2016-09-23T10:18:51.774Z,3.99
2016-09-23T10:19:51.736Z,4.1
2016-09-23T10:20:51.768Z,4.16
2016-09-23T10:21:51.766Z,4.25
2016-09-23T10:22:51.705Z,4.25
2016-09-23T10:23:51.684Z,4.65
2016-09-23T10:24:51.680Z,4.74
2016-09-23T10:25:51.656Z,4.74
2016-09-23T10:26:51.665Z,4.53
2016-09-23T10:27:51.651Z,4.69
2016-09-23T10:28:51.641Z,4.67
2016-09-23T10:29:51.625Z,4.9
2016-09-23T10:30:51.604Z,5.06
2016-09-23T10:31:51.632Z,5.12
2016-09-23T10:32:51.601Z,5.41
2016-09-23T10:33:51.579Z,5.11
2016-09-23T10:34:51.560Z,4.2
2016-09-23T10:35:51.548Z,4.18
2016-09-23T10:36:51.548Z,4.17
2016-09-23T10:37:51.549Z,4.54
2016-09-23T10:38:51.523Z,4.93
2016-09-23T10:39:51.515Z,5.37
2016-09-23T10:40:51.492Z,5.8
2016-09-23T10:41:51.452Z,5.96
2016-09-23T10:42:51.800Z,6.1
2016-09-23T10:43:51.449Z,5.8
2016-09-23T10:44:51.416Z,5.3
2016-09-23T10:45:51.433Z,5.08
2016-09-23T10:46:51.398Z,5.37
2016-09-23T10:47:51.396Z,5.62
2016-09-23T10:48:51.403Z,5.41
2016-09-23T10:49:51.396Z,5.08
2016-09-23T10:50:51.371Z,5.95
2016-09-23T10:51:51.358Z,6.38
2016-09-23T10:52:51.628Z,6.69
2016-09-23T10:53:51.352Z,7.18
2016-09-23T10:54:51.314Z,7.74
2016-09-23T10:55:51.322Z,7.52
2016-09-23T10:56:51.319Z,7.42
2016-09-23T10:57:51.301Z,6.9
2016-09-23T10:58:51.267Z,6.17
2016-09-23T10:59:51.253Z,5.99
2016-09-23T11:00:51.265Z,5.47
2016-09-23T11:01:51.265Z,5.15
2016-09-23T11:02:51.231Z,4.84
2016-09-23T11:03:51.219Z,4.84
2016-09-23T11:04:51.180Z,4.64
2016-09-23T11:05:51.197Z,5.02
2016-09-23T11:06:51.172Z,5.41
2016-09-23T11:07:51.141Z,5.52
2016-09-23T11:08:51.141Z,5.81
2016-09-23T11:09:51.161Z,5.77
2016-09-23T11:10:51.114Z,5.81
2016-09-23T11:11:51.098Z,5.47
2016-09-23T11:12:51.104Z,5.27
2016-09-23T11:13:51.123Z,5.37
2016-09-23T11:14:51.056Z,4.79
2016-09-23T11:15:51.075Z,4.46
2016-09-23T11:16:51.067Z,4.74
2016-09-23T11:17:51.021Z,5.06
2016-09-23T11:18:51.028Z,5.93
2016-09-23T11:19:51.255Z,6.43
2016-09-23T11:20:51.232Z,6.2
2016-09-23T11:21:50.996Z,6.01
2016-09-23T11:22:50.983Z,6.2
2016-09-23T11:23:50.974Z,6.79
2016-09-23T11:24:50.963Z,7.52
2016-09-23T11:25:50.954Z,7.73
2016-09-23T11:26:50.918Z,7.67
2016-09-23T11:27:50.948Z,8.04
2016-09-23T11:28:50.917Z,8.04
2016-09-23T11:29:50.915Z,8.4
2016-09-23T11:30:50.918Z,8.36
2016-09-23T11:31:50.921Z,8.13
2016-09-23T11:32:50.855Z,8.17
2016-09-23T11:33:50.854Z,8.37
2016-09-23T11:34:50.866Z,8.24
2016-09-23T11:35:50.846Z,8.45
2016-09-23T11:36:50.819Z,8.67
2016-09-23T11:37:50.844Z,9
2016-09-23T11:38:50.801Z,9.19
2016-09-23T11:39:50.796Z,8.83
2016-09-23T11:40:50.827Z,8.63
2016-09-23T11:41:50.794Z,7.85
2016-09-23T11:42:50.809Z,7.29
2016-09-23T11:43:50.762Z,7.74
2016-09-23T11:44:50.766Z,7.54
2016-09-23T11:45:50.733Z,7.21
2016-09-23T11:46:50.747Z,6.83
2016-09-23T11:47:50.710Z,6.96
2016-09-23T11:48:50.715Z,7.05
2016-09-23T11:49:50.723Z,6.86
2016-09-23T11:50:50.923Z,6.82
2016-09-23T11:51:50.868Z,6.61
2016-09-23T11:52:50.884Z,6.33
2016-09-23T11:53:50.875Z,6.25
2016-09-23T11:54:50.674Z,6.28
2016-09-23T11:55:50.642Z,6.43
2016-09-23T11:56:50.656Z,6.08
2016-09-23T11:57:50.656Z,5.83
2016-09-23T11:58:50.634Z,5.83
2016-09-23T11:59:50.590Z,5.81
2016-09-23T12:00:50.580Z,6.02
2016-09-23T12:01:50.580Z,6.08
2016-09-23T12:02:50.542Z,5.87
2016-09-23T12:03:50.557Z,5.73
2016-09-23T12:04:50.559Z,5.84
2016-09-23T12:05:50.533Z,5.8
2016-09-23T12:06:50.526Z,5.8
2016-09-23T12:07:50.546Z,5.52
2016-09-23T12:08:50.505Z,5.49
2016-09-23T12:09:50.487Z,5.32
2016-09-23T12:10:50.491Z,5.04
2016-09-23T12:11:50.467Z,5.14
2016-09-23T12:12:50.495Z,5.4
2016-09-23T12:13:50.434Z,5.23
2016-09-23T12:14:50.444Z,5.26
2016-09-23T12:15:50.418Z,5.41
2016-09-23T12:16:50.410Z,5.69
2016-09-23T12:17:50.411Z,5.9
2016-09-23T12:18:50.389Z,6.08
2016-09-23T12:19:50.403Z,6.35
2016-09-23T12:20:50.352Z,6.42
2016-09-23T12:21:50.340Z,6.35
2016-09-23T12:22:50.354Z,6.01
2016-09-23T12:23:50.540Z,6.33
2016-09-23T12:24:50.510Z,5.98
2016-09-23T12:25:50.560Z,6.21
2016-09-23T12:26:50.283Z,6.3
2016-09-23T12:27:50.283Z,6.24
2016-09-23T12:28:50.275Z,5.96
2016-09-23T12:29:50.298Z,5.92
2016-09-23T12:30:50.265Z,6.32
2016-09-23T12:31:50.220Z,6.38
2016-09-23T12:32:50.235Z,6.02
2016-09-23T12:33:50.199Z,5.88
2016-09-23T12:34:50.224Z,5.96
2016-09-23T12:35:50.208Z,5.66
2016-09-23T12:36:50.191Z,5.62
2016-09-23T12:37:50.158Z,5.42
2016-09-23T12:38:50.196Z,5.65
2016-09-23T12:39:50.238Z,6.21
2016-09-23T12:40:50.119Z,6.53
2016-09-23T12:41:50.105Z,6.48
2016-09-23T12:42:50.107Z,7.41
2016-09-23T12:43:50.143Z,7.58
2016-09-23T12:44:50.128Z,7.39
2016-09-23T12:45:50.094Z,7.54
2016-09-23T12:46:50.073Z,7.85
2016-09-23T12:47:50.037Z,7.7
2016-09-23T12:48:50.050Z,6.9
2016-09-23T12:49:50.038Z,7.15
2016-09-23T12:50:50.021Z,6.58
2016-09-23T12:51:50.052Z,7.04
2016-09-23T12:52:50.081Z,6.91
2016-09-23T12:53:50.004Z,6.27
2016-09-23T12:54:50.187Z,6.2
2016-09-23T12:55:50.178Z,6.93
2016-09-23T12:56:49.975Z,7.57
2016-09-23T12:57:49.954Z,7.67
2016-09-23T12:58:49.954Z,7.23
2016-09-23T12:59:49.943Z,6.51
2016-09-23T13:00:49.938Z,5.85
2016-09-23T13:01:49.944Z,5.44
2016-09-23T13:02:49.907Z,5.02
2016-09-23T13:03:49.890Z,5.08
2016-09-23T13:04:49.882Z,5.06
2016-09-23T13:05:49.870Z,4.77
2016-09-23T13:06:49.885Z,4.65
2016-09-23T13:07:49.854Z,4.67
2016-09-23T13:08:49.831Z,4.68
2016-09-23T13:09:49.828Z,4.43
2016-09-23T13:10:49.820Z,4.84
2016-09-23T13:11:49.807Z,5.19
2016-09-23T13:12:49.818Z,5.59
2016-09-23T13:13:49.772Z,5.77
2016-09-23T13:14:49.737Z,6.05
2016-09-23T13:15:49.772Z,6.3
2016-09-23T13:16:49.739Z,6.55
2016-09-23T13:17:49.749Z,6.35
2016-09-23T13:18:49.705Z,5.88
2016-09-23T13:19:49.729Z,5.6
2016-09-23T13:20:49.669Z,5.65
2016-09-23T13:21:49.681Z,5.44